Time;durP1;ratioP1;P1;durP2;ratioP2;P2;SDS_P1;SDS_P2;PMS_P1;PMS_P2;Temp;Humidity;BMP_temperature;BMP_pressure;BME280_temperature;BME280_humidity;BME280_pressure;Samples;Min_cycle;Max_cycle;Signal;HPM_P1;HPM_P2
2021/08/25 00:01:51;;;;;;;;;;;;;;;14.96;67.03;100004.63;5114200;28;20345;-69
2021/08/25 00:04:20;;;;;;;;;;;;;;;14.97;67.00;100011.47;5114065;28;19928;-68
2021/08/25 00:06:48;;;;;;;;;;;;;;;14.95;66.88;100013.22;5114058;28;19963;-68
2021/08/25 00:09:17;;;;;;;;;;;;;;;14.93;66.74;100017.50;5114019;28;19923;-68
2021/08/25 00:11:47;;;;;;;;;;;;;;;14.86;66.92;100018.47;5114318;28;19951;-68
2021/08/25 00:14:16;;;;;;;;;;;;;;;14.82;67.25;100022.81;5113978;28;19927;-69
2021/08/25 00:16:44;;;;;;;;;;;;;;;14.78;67.32;100014.28;5113923;28;19923;-68
2021/08/25 00:19:13;;;;;;;;;;;;;;;14.76;67.63;100016.00;5113904;28;19923;-69
2021/08/25 00:21:41;;;;;;;;;;;;;;;14.72;67.47;100011.78;5115021;28;20425;-69
2021/08/25 00:24:10;;;;;;;;;;;;;;;14.70;67.55;100008.41;5117647;28;19945;-68
2021/08/25 00:26:40;;;;;;;;;;;;;;;14.68;67.65;100002.41;5117513;28;20014;-69
2021/08/25 00:29:10;;;;;;;;;;;;;;;14.64;67.75;100005.88;5117508;28;19924;-69
2021/08/25 00:31:39;;;;;;;;;;;;;;;14.62;67.98;100002.47;5117547;28;19923;-68
2021/08/25 00:34:08;;;;;;;;;;;;;;;14.57;68.44;99993.97;5117407;28;19924;-68
2021/08/25 00:36:37;;;;;;;;;;;;;;;14.50;68.38;99996.63;5117526;28;20006;-69
2021/08/25 00:39:06;;;;;;;;;;;;;;;14.47;68.55;100002.66;5117323;28;19930;-69
2021/08/25 00:41:34;;;;;;;;;;;;;;;14.47;68.90;99996.66;5117394;28;19958;-69
2021/08/25 00:44:03;;;;;;;;;;;;;;;14.43;69.39;99995.88;5117528;28;20350;-68
2021/08/25 00:46:34;;;;;;;;;;;;;;;14.36;69.03;99989.09;5117378;28;20276;-69
2021/08/25 00:49:04;;;;;;;;;;;;;;;14.30;69.14;99991.72;5117148;28;20270;-67
2021/08/25 00:51:33;;;;;;;;;;;;;;;14.21;69.36;99989.22;5117395;28;19924;-69
2021/08/25 00:54:02;;;;;;;;;;;;;;;14.20;69.71;99986.69;5117021;28;19934;-69
2021/08/25 00:56:45;;;;;;;;;;;;;;;14.19;69.80;99984.97;5116905;28;20357;-69
2021/08/25 00:59:17;;;;;;;;;;;;;;;14.15;69.73;99979.03;5116991;28;19930;-69
2021/08/25 01:01:59;;;;;;;;;;;;;;;14.09;69.63;99973.94;5117021;27;19930;-68
2021/08/25 01:04:31;;;;;;;;;;;;;;;14.05;69.51;99972.28;5117172;28;19930;-68
2021/08/25 01:07:00;;;;;;;;;;;;;;;14.04;69.95;99975.69;5116869;27;19923;-69
2021/08/25 01:09:29;;;;;;;;;;;;;;;14.02;70.18;99973.16;5116737;28;19924;-69
2021/08/25 01:12:00;;;;;;;;;;;;;;;14.02;70.38;99968.03;5117037;28;19923;-69
2021/08/25 01:14:34;;;;;;;;;;;;;;;14.04;70.39;99971.44;5116663;28;19977;-68
2021/08/25 01:17:05;;;;;;;;;;;;;;;13.99;70.66;99972.31;5116551;28;20369;-68
2021/08/25 01:19:39;;;;;;;;;;;;;;;13.95;70.58;99965.53;5116600;28;19924;-68
2021/08/25 01:22:08;;;;;;;;;;;;;;;13.86;70.80;99965.63;5116604;28;19924;-69
2021/08/25 01:24:37;;;;;;;;;;;;;;;13.86;70.66;99965.63;5116475;28;19963;-69
2021/08/25 01:27:09;;;;;;;;;;;;;;;13.93;70.50;99959.56;5116303;28;20280;-68
2021/08/25 01:29:39;;;;;;;;;;;;;;;13.97;70.54;99956.09;5116723;28;20407;-68
2021/08/25 01:32:08;;;;;;;;;;;;;;;14.00;70.14;99963.78;5116281;28;19931;-69
2021/08/25 01:34:48;;;;;;;;;;;;;;;14.02;70.37;99964.59;5116327;28;19962;-68
2021/08/25 01:37:19;;;;;;;;;;;;;;;14.05;69.75;99969.72;5116239;28;20357;-68
2021/08/25 01:39:49;;;;;;;;;;;;;;;14.04;70.24;99968.00;5080776;28;19970;-69
2021/08/25 01:42:18;;;;;;;;;;;;;;;14.08;70.03;99967.13;5116167;28;19924;-67
2021/08/25 01:44:51;;;;;;;;;;;;;;;14.06;70.04;99966.25;5116110;28;20014;-68
2021/08/25 01:47:24;;;;;;;;;;;;;;;14.02;69.91;99959.47;5115850;28;19931;-68
2021/08/25 01:49:56;;;;;;;;;;;;;;;14.04;69.84;99961.16;5115998;28;19963;-68
2021/08/25 01:52:25;;;;;;;;;;;;;;;14.02;69.81;99957.75;5115961;28;19930;-67
2021/08/25 01:54:56;;;;;;;;;;;;;;;14.03;69.54;99958.63;5115789;28;19928;-68
2021/08/25 01:57:25;;;;;;;;;;;;;;;14.01;69.56;99945.78;5115731;28;20018;-69
2021/08/25 01:59:59;;;;;;;;;;;;;;;14.02;69.56;99946.63;5116007;28;19924;-69
2021/08/25 02:02:28;;;;;;;;;;;;;;;14.04;69.37;99944.91;5115726;28;19924;-68
2021/08/25 02:04:57;;;;;;;;;;;;;;;14.02;69.27;99951.78;5115894;28;20392;-67
2021/08/25 02:07:26;;;;;;;;;;;;;;;14.02;68.81;99946.63;5115475;27;19924;-69
2021/08/25 02:09:55;;;;;;;;;;;;;;;14.03;69.25;99948.34;5115474;28;19992;-69
2021/08/25 02:12:24;;;;;;;;;;;;;;;14.02;68.96;99952.63;5115476;28;19928;-69
2021/08/25 02:14:56;;;;;;;;;;;;;;;14.03;68.97;99943.22;5115464;28;19927;-69
2021/08/25 02:17:26;;;;;;;;;;;;;;;14.04;68.86;99944.91;5115776;28;19924;-68
2021/08/25 02:19:55;;;;;;;;;;;;;;;14.01;68.54;99944.97;5115707;28;19923;-67
2021/08/25 02:22:24;;;;;;;;;;;;;;;14.01;68.50;99947.53;5115682;28;20259;-68
2021/08/25 02:24:55;;;;;;;;;;;;;;;13.98;68.63;99944.97;5115210;28;20436;-68
2021/08/25 02:27:24;;;;;;;;;;;;;;;13.98;68.51;99944.97;5115080;28;19976;-68
2021/08/25 02:29:56;;;;;;;;;;;;;;;13.96;68.72;99952.69;5115185;28;19951;-69
2021/08/25 02:32:30;;;;;;;;;;;;;;;13.93;68.61;99944.19;5115108;28;19969;-69
2021/08/25 02:34:59;;;;;;;;;;;;;;;13.93;68.83;99952.72;5115305;28;20384;-68
2021/08/25 02:37:28;;;;;;;;;;;;;;;13.91;68.71;99949.34;5114947;28;19930;-69
2021/08/25 02:39:56;;;;;;;;;;;;;;;13.89;68.70;99952.78;5115273;28;19992;-69
2021/08/25 02:42:25;;;;;;;;;;;;;;;13.87;68.89;99951.91;5114985;28;19966;-70
2021/08/25 02:44:57;;;;;;;;;;;;;;;13.82;68.71;99954.53;5114147;28;19976;-67
2021/08/25 02:47:30;;;;;;;;;;;;;;;13.76;68.88;99953.75;5115350;28;20307;-69
2021/08/25 02:49:59;;;;;;;;;;;;;;;13.74;69.19;99947.78;5114734;28;20018;-69
2021/08/25 02:52:28;;;;;;;;;;;;;;;13.72;69.24;99941.81;5114763;28;19924;-70
2021/08/25 02:54:56;;;;;;;;;;;;;;;13.70;68.99;99941.81;5115297;28;19959;-69
2021/08/25 02:57:25;;;;;;;;;;;;;;;13.70;69.75;99938.44;5114694;28;19923;-68
2021/08/25 02:59:54;;;;;;;;;;;;;;;13.62;69.33;99929.94;5114663;28;19928;-68
2021/08/25 03:02:22;;;;;;;;;;;;;;;13.58;69.76;99929.09;5114854;27;20034;-68
2021/08/25 03:04:55;;;;;;;;;;;;;;;13.53;69.86;99930.03;5113862;28;21589;-69
2021/08/25 03:07:23;;;;;;;;;;;;;;;13.46;70.04;99929.22;5114662;28;19923;-70
2021/08/25 03:09:52;;;;;;;;;;;;;;;13.35;70.23;99931.03;5114604;28;19924;-69
2021/08/25 03:12:21;;;;;;;;;;;;;;;13.36;70.96;99925.88;5114565;28;19924;-69
2021/08/25 03:14:49;;;;;;;;;;;;;;;13.28;70.90;99945.59;5114512;28;20373;-68
2021/08/25 03:17:18;;;;;;;;;;;;;;;13.14;71.27;99944.84;5114467;28;19932;-69
2021/08/25 03:19:46;;;;;;;;;;;;;;;13.21;71.20;99933.69;5114910;28;20038;-68
2021/08/25 03:22:16;;;;;;;;;;;;;;;13.26;70.93;99929.38;5114448;28;19923;-69
2021/08/25 03:24:45;;;;;;;;;;;;;;;13.30;70.78;99933.63;5114430;28;20301;-69
2021/08/25 03:27:14;;;;;;;;;;;;;;;13.19;70.96;99930.31;5114369;28;19980;-68
2021/08/25 03:29:42;;;;;;;;;;;;;;;13.23;71.20;99921.72;5114684;28;19932;-68
2021/08/25 03:32:14;;;;;;;;;;;;;;;13.30;70.63;99923.38;5114382;28;19962;-68
2021/08/25 03:34:46;;;;;;;;;;;;;;;13.37;70.70;99914.75;5114297;28;19923;-68
2021/08/25 03:37:17;;;;;;;;;;;;;;;13.36;70.57;99918.19;5114268;28;19923;-69
2021/08/25 03:39:46;;;;;;;;;;;;;;;13.35;70.46;99921.63;5114358;28;20018;-68
2021/08/25 03:42:14;;;;;;;;;;;;;;;13.33;70.37;99918.22;5114232;28;19928;-69
2021/08/25 03:44:43;;;;;;;;;;;;;;;13.30;70.23;99918.25;5114239;28;19955;-69
2021/08/25 03:47:12;;;;;;;;;;;;;;;13.27;70.28;99918.25;5114064;28;19955;-68
2021/08/25 03:49:42;;;;;;;;;;;;;;;13.22;70.83;99914.88;5114437;28;20377;-68
2021/08/25 03:52:11;;;;;;;;;;;;;;;13.16;71.10;99909.81;5114136;28;20374;-69
2021/08/25 03:54:41;;;;;;;;;;;;;;;13.19;70.96;99912.34;5114461;28;19946;-69
2021/08/25 03:57:09;;;;;;;;;;;;;;;13.21;70.71;99913.19;5117707;28;19927;-69
2021/08/25 03:59:38;;;;;;;;;;;;;;;13.24;70.48;99910.63;5118194;28;20403;-70
2021/08/25 04:02:10;;;;;;;;;;;;;;;13.21;70.82;99914.91;5117972;28;20018;-70
2021/08/25 04:04:39;;;;;;;;;;;;;;;13.13;70.77;99904.69;5118078;28;19923;-68
2021/08/25 04:07:08;;;;;;;;;;;;;;;13.16;70.78;99920.06;5118514;28;20365;-69
2021/08/25 04:09:37;;;;;;;;;;;;;;;13.21;70.63;99920.88;5118546;28;19923;-68
2021/08/25 04:12:07;;;;;;;;;;;;;;;13.20;70.30;99926.84;5117692;28;20351;-69
2021/08/25 04:14:36;;;;;;;;;;;;;;;13.19;70.17;99922.59;5117885;28;19924;-68
2021/08/25 04:17:04;;;;;;;;;;;;;;;13.22;70.42;99927.69;5118079;28;20361;-68
2021/08/25 04:19:33;;;;;;;;;;;;;;;13.10;70.73;99925.22;5117951;28;19924;-68
2021/08/25 04:22:02;;;;;;;;;;;;;;;13.09;71.14;99933.78;5116673;28;20326;-68
2021/08/25 04:24:31;;;;;;;;;;;;;;;13.27;70.65;99938.75;5117656;28;19924;-68
2021/08/25 04:27:00;;;;;;;;;;;;;;;13.27;70.61;99936.19;5117517;28;20366;-69
2021/08/25 04:29:33;;;;;;;;;;;;;;;13.37;70.86;99930.16;5116304;28;19924;-69
2021/08/25 04:32:05;;;;;;;;;;;;;;;13.44;70.76;99936.91;5118003;28;19924;-68
2021/08/25 04:34:35;;;;;;;;;;;;;;;13.42;70.44;99923.28;5117801;28;19928;-68
2021/08/25 04:37:04;;;;;;;;;;;;;;;13.48;70.83;99932.63;5117412;28;20019;-68
2021/08/25 04:39:32;;;;;;;;;;;;;;;13.53;70.29;99933.44;5117354;28;20026;-68
2021/08/25 04:42:01;;;;;;;;;;;;;;;13.56;69.67;99932.53;5117273;28;20027;-69
2021/08/25 04:44:30;;;;;;;;;;;;;;;13.54;69.67;99934.28;5117541;28;19973;-68
2021/08/25 04:47:00;;;;;;;;;;;;;;;13.57;69.75;99929.97;5117398;27;20030;-69
2021/08/25 04:49:29;;;;;;;;;;;;;;;13.69;69.57;99939.28;5117150;28;19924;-69
2021/08/25 04:51:58;;;;;;;;;;;;;;;13.77;69.31;99934.94;5117368;28;19924;-69
2021/08/25 04:54:26;;;;;;;;;;;;;;;13.84;68.90;99937.44;5117275;28;19923;-68
2021/08/25 04:56:55;;;;;;;;;;;;;;;13.80;69.14;99937.44;5117009;28;20369;-68
2021/08/25 04:59:24;;;;;;;;;;;;;;;13.82;69.31;99938.31;5116940;28;19930;-68
2021/08/25 05:01:52;;;;;;;;;;;;;;;13.89;69.35;99945.09;5117157;28;20018;-69
2021/08/25 05:04:23;;;;;;;;;;;;;;;13.91;69.54;99943.34;5116730;27;19927;-70
2021/08/25 05:06:52;;;;;;;;;;;;;;;13.94;69.48;99938.19;5116376;28;19946;-68
2021/08/25 05:09:21;;;;;;;;;;;;;;;14.00;68.84;99945.81;5116874;28;20297;-70
2021/08/25 05:11:50;;;;;;;;;;;;;;;14.09;69.11;99935.44;5117054;28;19923;-70
2021/08/25 05:14:19;;;;;;;;;;;;;;;14.20;68.56;99931.06;5116816;28;20426;-69
2021/08/25 05:16:47;;;;;;;;;;;;;;;14.34;68.16;99929.22;5116620;28;19924;-69
2021/08/25 05:19:16;;;;;;;;;;;;;;;14.43;68.25;99929.09;5116853;28;19935;-69
2021/08/25 05:21:46;;;;;;;;;;;;;;;14.43;67.70;99923.94;5116874;28;19924;-67
2021/08/25 05:24:15;;;;;;;;;;;;;;;14.47;67.67;99920.47;5116521;28;20425;-68
2021/08/25 05:26:47;;;;;;;;;;;;;;;14.48;67.89;99921.31;5116521;28;20022;-67
2021/08/25 05:29:16;;;;;;;;;;;;;;;14.50;67.56;99920.44;5116307;28;19924;-67
2021/08/25 05:31:44;;;;;;;;;;;;;;;14.61;67.73;99922.88;5116659;28;20024;-68
2021/08/25 05:34:13;;;;;;;;;;;;;;;14.76;67.52;99923.50;5116151;28;19931;-69
2021/08/25 05:36:42;;;;;;;;;;;;;;;14.91;67.55;99916.44;5116282;28;19924;-69
2021/08/25 05:39:16;;;;;;;;;;;;;;;15.10;67.54;99918.72;5116332;28;19931;-67
2021/08/25 05:41:45;;;;;;;;;;;;;;;15.27;66.36;99915.91;5117021;28;19970;-69
2021/08/25 05:44:13;;;;;;;;;;;;;;;15.42;65.98;99913.09;5116258;28;19924;-68
2021/08/25 05:46:42;;;;;;;;;;;;;;;15.59;65.06;99908.53;5116395;28;20281;-67
2021/08/25 05:49:10;;;;;;;;;;;;;;;15.68;64.67;99903.22;5115993;28;19924;-69
2021/08/25 05:51:39;;;;;;;;;;;;;;;15.86;64.56;99902.06;5116195;28;20449;-69
2021/08/25 05:54:13;;;;;;;;;;;;;;;15.95;64.25;99902.72;5116156;28;20018;-68
2021/08/25 05:56:46;;;;;;;;;;;;;;;16.03;63.84;99900.84;5115899;28;20284;-66
2021/08/25 05:59:15;;;;;;;;;;;;;;;16.17;63.10;99904.88;5115979;28;20018;-69
2021/08/25 06:01:44;;;;;;;;;;;;;;;16.29;62.54;99907.22;5115688;28;19966;-70
2021/08/25 06:04:13;;;;;;;;;;;;;;;16.45;62.13;99903.44;5115295;28;20254;-70
2021/08/25 06:06:42;;;;;;;;;;;;;;;16.57;61.03;99898.06;5115974;28;19924;-70
2021/08/25 06:09:11;;;;;;;;;;;;;;;16.65;60.60;99894.41;5114484;28;20374;-70
2021/08/25 06:11:39;;;;;;;;;;;;;;;16.78;60.19;99895.00;5115684;28;20385;-69
2021/08/25 06:14:10;;;;;;;;;;;;;;;16.94;59.78;99904.06;5115436;28;20018;-69
2021/08/25 06:16:39;;;;;;;;;;;;;;;17.05;59.24;99886.63;5115481;28;19973;-70
2021/08/25 06:19:07;;;;;;;;;;;;;;;17.18;58.61;99888.03;5114194;28;19928;-69
2021/08/25 06:21:36;;;;;;;;;;;;;;;17.26;58.18;99887.84;5115375;28;19928;-70
2021/08/25 06:24:08;;;;;;;;;;;;;;;17.25;57.90;99881.00;5115352;28;19967;-70
2021/08/25 06:26:40;;;;;;;;;;;;;;;17.25;57.74;99881.84;5115217;28;19971;-71
2021/08/25 06:29:13;;;;;;;;;;;;;;;17.29;57.20;99880.03;5115112;28;19928;-70
2021/08/25 06:31:45;;;;;;;;;;;;;;;17.31;56.80;99878.25;5115352;27;19924;-69
2021/08/25 06:34:14;;;;;;;;;;;;;;;17.41;56.65;99880.59;5115746;28;20369;-69
2021/08/25 06:36:43;;;;;;;;;;;;;;;17.43;55.87;99878.81;5114930;28;20010;-67
2021/08/25 06:39:11;;;;;;;;;;;;;;;17.47;55.42;99878.75;5114960;28;19924;-70
2021/08/25 06:41:40;;;;;;;;;;;;;;;17.55;55.04;99871.66;5115329;28;19954;-71
2021/08/25 06:44:09;;;;;;;;;;;;;;;17.55;54.55;99874.25;5114866;28;19924;-70
2021/08/25 06:46:39;;;;;;;;;;;;;;;17.64;54.31;99871.41;5114874;28;20022;-70
2021/08/25 06:49:07;;;;;;;;;;;;;;;17.74;54.14;99862.53;5114685;28;19928;-70
2021/08/25 06:51:36;;;;;;;;;;;;;;;17.75;54.06;99869.41;5114852;28;19924;-69
2021/08/25 06:54:05;;;;;;;;;;;;;;;17.81;53.95;99864.06;5114749;28;20378;-69
2021/08/25 06:56:33;;;;;;;;;;;;;;;17.91;53.28;99860.34;5114514;28;19958;-68
2021/08/25 06:59:02;;;;;;;;;;;;;;;17.96;52.88;99854.19;5113196;28;19973;-69
2021/08/25 07:01:31;;;;;;;;;;;;;;;18.02;52.95;99860.88;5114425;28;19930;-70
2021/08/25 07:04:01;;;;;;;;;;;;;;;18.14;52.72;99855.38;5114599;28;19970;-70
2021/08/25 07:06:30;;;;;;;;;;;;;;;18.08;52.33;99859.00;5114659;28;19923;-70
2021/08/25 07:08:59;;;;;;;;;;;;;;;18.07;51.92;99856.44;5114486;28;19924;-69
2021/08/25 07:11:28;;;;;;;;;;;;;;;18.20;52.24;99860.38;5114476;28;19927;-70
2021/08/25 07:13:56;;;;;;;;;;;;;;;18.35;52.28;99853.94;5114411;28;20269;-69
2021/08/25 07:16:25;;;;;;;;;;;;;;;18.47;51.98;99851.00;5114813;28;20284;-70
2021/08/25 07:18:54;;;;;;;;;;;;;;;18.63;51.84;99847.91;5114228;28;19924;-70
2021/08/25 07:21:24;;;;;;;;;;;;;;;18.67;51.69;99849.50;5114359;28;19970;-70
2021/08/25 07:23:53;;;;;;;;;;;;;;;18.63;51.74;99853.09;5114581;28;20018;-71
2021/08/25 07:26:21;;;;;;;;;;;;;;;18.65;50.66;99856.47;5114783;28;20014;-70
2021/08/25 07:28:50;;;;;;;;;;;;;;;18.84;50.44;99853.28;5114348;28;19927;-70
2021/08/25 07:31:19;;;;;;;;;;;;;;;18.91;49.40;99852.25;5116545;28;20009;-70
2021/08/25 07:33:48;;;;;;;;;;;;;;;18.91;48.79;99853.06;5118775;28;19985;-70
2021/08/25 07:36:19;;;;;;;;;;;;;;;18.91;48.52;99853.06;5118437;28;19928;-70
2021/08/25 07:38:49;;;;;;;;;;;;;;;18.97;48.66;99852.03;5118650;28;19953;-71
2021/08/25 07:41:17;;;;;;;;;;;;;;;19.12;48.98;99861.88;5118318;28;19931;-70
2021/08/25 07:43:46;;;;;;;;;;;;;;;19.18;48.32;99856.50;5118339;28;19925;-71
2021/08/25 07:46:15;;;;;;;;;;;;;;;19.22;47.66;99852.91;5118371;28;19930;-71
2021/08/25 07:48:45;;;;;;;;;;;;;;;19.36;48.22;99850.75;5118338;28;20387;-70
2021/08/25 07:51:13;;;;;;;;;;;;;;;19.56;48.15;99843.13;5118070;28;19931;-71
2021/08/25 07:53:42;;;;;;;;;;;;;;;19.74;47.89;99844.25;5117963;28;19931;-70
2021/08/25 07:56:12;;;;;;;;;;;;;;;19.64;47.56;99835.97;5117993;28;20297;-70
2021/08/25 07:58:41;;;;;;;;;;;;;;;19.66;47.23;99844.53;5117965;28;20423;-71
2021/08/25 08:01:12;;;;;;;;;;;;;;;19.81;47.49;99848.31;5118022;28;20017;-71
2021/08/25 08:03:41;;;;;;;;;;;;;;;19.98;47.23;99838.19;5117776;28;20010;-71
2021/08/25 08:06:10;;;;;;;;;;;;;;;20.15;47.45;99842.75;5117876;28;19931;-71
2021/08/25 08:08:39;;;;;;;;;;;;;;;20.36;47.32;99841.97;5118046;28;20377;-70
2021/08/25 08:11:08;;;;;;;;;;;;;;;20.40;46.64;99838.34;5117686;28;19924;-71
2021/08/25 08:13:38;;;;;;;;;;;;;;;20.36;47.24;99836.81;5113060;28;20023;-74
2021/08/25 08:16:08;;;;;;;;;;;;;;;20.46;47.67;99839.00;5102090;28;19924;-72
2021/08/25 08:18:41;;;;;;;;;;;;;;;20.55;47.25;99838.63;5111868;28;19931;-71
2021/08/25 08:21:09;;;;;;;;;;;;;;;20.40;46.88;99838.34;5116353;28;20288;-70
2021/08/25 08:23:48;;;;;;;;;;;;;;;20.43;47.23;99830.47;5116367;28;20416;-71
2021/08/25 08:26:17;;;;;;;;;;;;;;;20.65;47.71;99819.22;5110756;28;19923;-71
2021/08/25 08:28:47;;;;;;;;;;;;;;;20.64;47.68;99832.22;5109395;28;19932;-72
2021/08/25 08:31:15;;;;;;;;;;;;;;;20.73;46.95;99818.91;5110755;28;19923;-70
2021/08/25 08:33:45;;;;;;;;;;;;;;;20.71;46.32;99818.09;5113483;28;19924;-72
2021/08/25 08:36:14;;;;;;;;;;;;;;;20.68;46.32;99820.84;5108620;28;20373;-69
2021/08/25 08:38:42;;;;;;;;;;;;;;;20.52;46.02;99825.78;5113862;28;19924;-71
2021/08/25 08:41:11;;;;;;;;;;;;;;;20.72;46.05;99817.22;5115830;28;19930;-69
2021/08/25 08:43:42;;;;;;;;;;;;;;;20.85;45.71;99814.97;5114338;28;20395;-70
2021/08/25 08:46:15;;;;;;;;;;;;;;;20.88;45.75;99817.44;5106661;28;19924;-71
2021/08/25 08:48:44;;;;;;;;;;;;;;;21.08;45.29;99818.34;5109933;28;20018;-71
2021/08/25 08:51:16;;;;;;;;;;;;;;;21.11;45.10;99813.06;5113870;28;20258;-71
2021/08/25 08:53:44;;;;;;;;;;;;;;;21.08;44.29;99813.16;5108280;28;19931;-72
2021/08/25 08:56:13;;;;;;;;;;;;;;;21.16;44.46;99807.66;5114705;28;19928;-70
2021/08/25 08:58:42;;;;;;;;;;;;;;;21.22;44.39;99804.78;5112725;28;20015;-71
2021/08/25 09:01:11;;;;;;;;;;;;;;;21.26;44.24;99811.53;5116292;28;19923;-70
2021/08/25 09:03:42;;;;;;;;;;;;;;;21.32;44.13;99801.75;5116572;28;20343;-71
2021/08/25 09:06:12;;;;;;;;;;;;;;;21.40;44.01;99803.19;5116763;28;19930;-72
2021/08/25 09:08:41;;;;;;;;;;;;;;;21.58;44.03;99802.38;5116731;28;19946;-70
2021/08/25 09:11:10;;;;;;;;;;;;;;;21.69;43.53;99806.19;5116951;28;19934;-70
2021/08/25 09:13:47;;;;;;;;;;;;;;;21.70;43.05;99812.22;5116700;28;20412;-71
2021/08/25 09:16:26;;;;;;;;;;;;;;;21.77;42.44;99811.06;5098421;28;19930;-71
2021/08/25 09:19:04;;;;;;;;;;;;;;;21.69;42.46;99802.78;5116517;28;20018;-70
2021/08/25 09:21:34;;;;;;;;;;;;;;;21.63;42.55;99793.47;5116787;28;20440;-70
2021/08/25 09:24:07;;;;;;;;;;;;;;;21.79;42.79;99791.88;5116411;28;19930;-70
2021/08/25 09:26:56;;;;;;;;;;;;;;;22.01;42.78;99787.44;5117005;28;20318;-71
2021/08/25 09:29:31;;;;;;;;;;;;;;;22.02;42.56;99796.09;5094102;28;20387;-70
2021/08/25 09:32:00;;;;;;;;;;;;;;;22.03;42.32;99790.81;5094076;28;19928;-70
2021/08/25 09:34:34;;;;;;;;;;;;;;;22.13;42.25;99788.63;5060464;28;20436;-72
2021/08/25 09:37:06;;;;;;;;;;;;;;;22.30;43.03;99788.69;5093887;28;19931;-70
2021/08/25 09:39:36;;;;;;;;;;;;;;;22.24;42.18;99791.59;5093796;28;20405;-71
2021/08/25 09:42:05;;;;;;;;;;;;;;;22.16;41.64;99790.25;5093891;28;19931;-72
2021/08/25 09:44:33;;;;;;;;;;;;;;;22.24;41.70;99782.94;5093539;28;19978;-71
2021/08/25 09:47:02;;;;;;;;;;;;;;;22.40;42.39;99779.56;5093477;28;19924;-71
2021/08/25 09:49:39;;;;;;;;;;;;;;;22.60;41.68;99784.63;5093535;28;19931;-70
2021/08/25 09:52:33;;;;;;;;;;;;;;;22.54;40.95;99776.28;5093458;28;19931;-70
2021/08/25 09:55:03;;;;;;;;;;;;;;;22.34;40.78;99781.59;5113272;28;19931;-71
2021/08/25 09:57:38;;;;;;;;;;;;;;;22.26;40.82;99771.56;5116363;28;19930;-71
2021/08/25 10:00:11;;;;;;;;;;;;;;;22.44;41.08;99770.69;5115999;28;19924;-70
2021/08/25 10:02:41;;;;;;;;;;;;;;;22.52;41.10;99773.78;5115669;28;19977;-70
2021/08/25 10:05:25;;;;;;;;;;;;;;;22.64;41.00;99757.59;5115982;28;19927;-72
2021/08/25 10:08:05;;;;;;;;;;;;;;;22.81;40.77;99767.19;5115598;28;19977;-70
2021/08/25 10:10:34;;;;;;;;;;;;;;;22.85;40.57;99763.50;5115444;28;19924;-71
2021/08/25 10:13:04;;;;;;;;;;;;;;;22.70;40.16;99763.41;5115885;28;19967;-71
2021/08/25 10:15:40;;;;;;;;;;;;;;;22.76;40.23;99761.34;5115711;28;20327;-71
2021/08/25 10:18:27;;;;;;;;;;;;;;;22.81;39.81;99755.91;5115499;28;19924;-70
2021/08/25 10:20:58;;;;;;;;;;;;;;;22.98;39.94;99755.94;5115122;28;19967;-70
2021/08/25 10:23:37;;;;;;;;;;;;;;;23.04;40.86;99756.44;5115368;28;19924;-71
2021/08/25 10:26:07;;;;;;;;;;;;;;;23.03;39.76;99748.72;5115546;28;20011;-72
2021/08/25 10:28:47;;;;;;;;;;;;;;;22.75;39.31;99740.63;5115148;28;19924;-70
2021/08/25 10:31:16;;;;;;;;;;;;;;;22.57;39.97;99735.38;5115165;28;19993;-70
2021/08/25 10:34:00;;;;;;;;;;;;;;;22.77;41.43;99737.00;5115111;28;20019;-70
2021/08/25 10:36:55;;;;;;;;;;;;;;;23.11;40.66;99744.81;5114903;28;19923;-71
2021/08/25 10:39:35;;;;;;;;;;;;;;;23.19;39.60;99739.22;5114963;28;19924;-72
2021/08/25 10:42:05;;;;;;;;;;;;;;;22.96;39.27;99737.75;5114892;28;19931;-71
2021/08/25 10:44:45;;;;;;;;;;;;;;;23.09;39.35;99740.59;5114886;28;19924;-70
2021/08/25 10:47:15;;;;;;;;;;;;;;;23.22;39.21;99733.84;5115081;28;19977;-71
2021/08/25 10:49:47;;;;;;;;;;;;;;;23.07;39.07;99729.41;5114821;28;19969;-70
2021/08/25 10:52:28;;;;;;;;;;;;;;;23.26;39.79;99730.16;5114994;28;19924;-70
2021/08/25 10:54:58;;;;;;;;;;;;;;;23.53;40.99;99717.50;5113488;28;20352;-70
2021/08/25 10:57:28;;;;;;;;;;;;;;;23.59;40.07;99723.22;5114700;28;19923;-71
2021/08/25 11:00:10;;;;;;;;;;;;;;;23.41;38.89;99721.59;5114849;28;19956;-70
2021/08/25 11:02:40;;;;;;;;;;;;;;;23.33;40.19;99721.09;5114690;28;20343;-71
2021/08/25 11:05:13;;;;;;;;;;;;;;;23.56;40.30;99707.75;5114401;28;20460;-72
2021/08/25 11:07:42;;;;;;;;;;;;;;;23.66;40.07;99702.91;5114674;28;19934;-70
2021/08/25 11:10:12;;;;;;;;;;;;;;;23.92;39.38;99703.13;5114908;28;19924;-71
2021/08/25 11:12:45;;;;;;;;;;;;;;;24.15;39.12;99701.06;5114912;28;19924;-72
2021/08/25 11:15:14;;;;;;;;;;;;;;;24.42;39.71;99689.06;5114489;28;20351;-70
2021/08/25 11:17:43;;;;;;;;;;;;;;;24.39;39.98;99689.25;5114513;28;19981;-71
2021/08/25 11:20:11;;;;;;;;;;;;;;;24.54;38.34;99694.44;5114337;28;20018;-71
2021/08/25 11:22:41;;;;;;;;;;;;;;;24.22;37.29;99691.97;5115020;28;20018;-71
2021/08/25 11:25:11;;;;;;;;;;;;;;;24.27;37.54;99687.34;5114743;28;19924;-72
2021/08/25 11:27:44;;;;;;;;;;;;;;;24.34;37.87;99688.66;5114363;28;19924;-71
2021/08/25 11:30:15;;;;;;;;;;;;;;;24.25;37.89;99689.19;5114445;28;19955;-72
2021/08/25 11:32:53;;;;;;;;;;;;;;;24.36;37.65;99678.97;5114351;28;19930;-72
2021/08/25 11:35:23;;;;;;;;;;;;;;;24.36;37.36;99685.03;5114672;28;20030;-71
2021/08/25 11:37:52;;;;;;;;;;;;;;;24.48;36.69;99678.28;5114297;28;19958;-70
2021/08/25 11:40:22;;;;;;;;;;;;;;;24.72;37.92;99676.84;5114729;28;19930;-71
2021/08/25 11:42:53;;;;;;;;;;;;;;;24.93;37.57;99680.84;5114827;28;20392;-71
2021/08/25 11:45:28;;;;;;;;;;;;;;;24.90;36.33;99675.81;5114174;28;19934;-71
2021/08/25 11:47:58;;;;;;;;;;;;;;;24.96;37.00;99677.22;5114266;28;19924;-72
2021/08/25 11:50:28;;;;;;;;;;;;;;;24.88;36.73;99669.84;5114197;28;20369;-70
2021/08/25 11:52:57;;;;;;;;;;;;;;;24.96;37.34;99675.44;5114032;28;19931;-71
2021/08/25 11:55:25;;;;;;;;;;;;;;;24.95;35.92;99672.94;5114070;28;19924;-72
2021/08/25 11:57:57;;;;;;;;;;;;;;;24.76;35.85;99667.94;5114725;28;19972;-70
2021/08/25 12:00:37;;;;;;;;;;;;;;;24.89;35.76;99668.91;5114936;28;19978;-71
2021/08/25 12:03:06;;;;;;;;;;;;;;;24.70;36.01;99660.44;5114002;28;19923;-71
2021/08/25 12:05:36;;;;;;;;;;;;;;;24.84;36.19;99670.94;5113948;28;19924;-71
2021/08/25 12:08:09;;;;;;;;;;;;;;;24.94;35.23;99666.88;5113953;28;19924;-70
2021/08/25 12:10:39;;;;;;;;;;;;;;;24.91;35.01;99667.03;5113991;28;19923;-71
2021/08/25 12:13:10;;;;;;;;;;;;;;;25.01;36.15;99657.72;5114178;28;19924;-72
2021/08/25 12:15:42;;;;;;;;;;;;;;;25.24;35.45;99654.53;5114243;28;19924;-71
2021/08/25 12:18:11;;;;;;;;;;;;;;;25.19;34.65;99653.97;5117974;28;19924;-71
2021/08/25 12:20:41;;;;;;;;;;;;;;;25.05;34.14;99653.16;5118005;28;19928;-70
2021/08/25 12:23:10;;;;;;;;;;;;;;;24.88;33.66;99651.56;5118063;28;20014;-71
2021/08/25 12:25:43;;;;;;;;;;;;;;;24.86;33.37;99644.75;5117703;27;19959;-72
2021/08/25 12:28:14;;;;;;;;;;;;;;;24.49;34.38;99638.22;5117525;28;19968;-71
2021/08/25 12:30:44;;;;;;;;;;;;;;;24.02;35.10;99632.25;5117486;28;20363;-71
2021/08/25 12:33:27;;;;;;;;;;;;;;;24.14;35.57;99632.41;5117513;28;19924;-70
2021/08/25 12:35:56;;;;;;;;;;;;;;;24.54;35.67;99625.75;5117730;28;20014;-72
2021/08/25 12:38:30;;;;;;;;;;;;;;;24.89;36.82;99632.34;5117347;28;19935;-72
2021/08/25 12:40:59;;;;;;;;;;;;;;;25.27;38.22;99628.25;5117408;28;20010;-71
2021/08/25 12:43:29;;;;;;;;;;;;;;;25.46;38.82;99627.97;5117186;28;20019;-71
2021/08/25 12:45:58;;;;;;;;;;;;;;;25.62;37.35;99627.84;5117250;28;19931;-72
2021/08/25 12:48:27;;;;;;;;;;;;;;;25.63;36.13;99632.13;5117436;28;19953;-71
2021/08/25 12:50:56;;;;;;;;;;;;;;;25.61;35.12;99631.38;5117140;28;19927;-72
2021/08/25 12:53:25;;;;;;;;;;;;;;;25.54;34.62;99620.50;5117018;28;19924;-71
2021/08/25 12:55:54;;;;;;;;;;;;;;;25.59;35.13;99622.81;5117070;28;19971;-71
2021/08/25 12:58:23;;;;;;;;;;;;;;;25.36;34.09;99626.84;5116858;28;19951;-72
2021/08/25 13:00:54;;;;;;;;;;;;;;;25.14;34.04;99616.88;5116972;28;20326;-70
2021/08/25 13:03:23;;;;;;;;;;;;;;;24.75;34.51;99619.25;5116622;28;20304;-70